KAOO/AOO METAR and TAF weather

Enter ICAO airport designator
Station Type Date Time Source
KAOO METAR 2018/10/21 04:05 UTC NOAA

KAOO 210405Z AUTO 28008KT 10SM BKN025 OVC032 07/03 A2975 RMK AO2 T00670028


Station Type Date Time Source
KAOO Decoded METAR 2018/10/21 04:05 UTC NOAA

ALTOONA-BLAIR COUNTY AIRPORT, PA, United States (KAOO) 40-18N 78-19W 455M
Oct 21, 2018 - 12:05 AM EDT / 2018.10.21 0405 UTC
Wind: from the W (280 degrees) at 9 MPH (8 KT):0
Visibility: 10 mile(s):0
Sky conditions: overcast
Temperature: 44.1 F (6.7 C)
Dew Point: 37.0 F (2.8 C)
Relative Humidity: 76%
Pressure (altimeter): 29.75 in. Hg (1007 hPa)
ob: KAOO 210405Z AUTO 28008KT 10SM BKN025 OVC032 07/03 A2975 RMK AO2 T00670028
cycle: 4

Station Type Date Time Source
KAOO TAF 2018/10/21 04:59 UTC NOAA

TAF
AMD KAOO 210359Z 2104/2124 28012KT P6SM VCSH SCT025 BKN035
TEMPO 2104/2108 33015G25KT P6SM BKN025 OVC040
FM210800 32020G30KT P6SM VCSH BKN035
FM211400 31018G28KT P6SM BKN050


Example: see airport list